Time;durP1;ratioP1;P1;durP2;ratioP2;P2;SDS_P1;SDS_P2;PMS_P1;PMS_P2;Temp;Humidity;BMP_temperature;BMP_pressure;BME280_temperature;BME280_humidity;BME280_pressure;Samples;Min_cycle;Max_cycle;Signal;HPM_P1;HPM_P2
2023/12/08 00:01:14;;;;;;;16.00;13.90;;;;;;;1.18;100.00;160879.53;5047866;28;20703;-59
2023/12/08 00:03:39;;;;;;;19.20;14.25;;;;;;;1.21;100.00;160888.91;5050628;28;20025;-63
2023/12/08 00:06:06;;;;;;;14.63;12.73;;;;;;;1.23;100.00;160894.25;5049203;28;20041;-59
2023/12/08 00:08:32;;;;;;;16.10;14.40;;;;;;;1.22;100.00;160891.59;5050605;28;20056;-59
2023/12/08 00:10:57;;;;;;;18.48;14.02;;;;;;;1.19;100.00;160883.53;5048857;28;20646;-59
2023/12/08 00:13:23;;;;;;;16.30;12.43;;;;;;;1.16;100.00;160875.47;5060860;28;20035;-59
2023/12/08 00:15:48;;;;;;;17.67;15.65;;;;;;;1.13;100.00;160866.06;5069078;28;20408;-59
2023/12/08 00:18:14;;;;;;;16.67;14.93;;;;;;;1.11;100.00;160862.06;5059575;28;20039;-59
2023/12/08 00:20:39;;;;;;;17.77;13.55;;;;;;;1.07;100.00;160851.38;5048751;28;20448;-59
2023/12/08 00:23:04;;;;;;;17.50;13.60;;;;;;;1.06;100.00;160848.69;5050712;28;20021;-59
2023/12/08 00:25:30;;;;;;;18.58;13.52;;;;;;;1.09;100.00;160856.69;5048904;28;20196;-59
2023/12/08 00:27:55;;;;;;;18.40;14.88;;;;;;;1.11;100.00;160862.06;5063343;28;20454;-59
2023/12/08 00:30:21;;;;;;;18.23;15.77;;;;;;;1.11;100.00;160862.06;5068859;28;20529;-58
2023/12/08 00:32:46;;;;;;;19.77;14.35;;;;;;;1.02;100.00;160837.91;5064596;28;20032;-58
2023/12/08 00:35:12;;;;;;;20.23;17.33;;;;;;;1.04;100.00;160843.28;5048565;28;20037;-59
2023/12/08 00:37:38;;;;;;;22.70;14.98;;;;;;;1.03;100.00;160840.59;5050278;28;20049;-58
2023/12/08 00:40:05;;;;;;;21.30;15.10;;;;;;;1.07;100.00;160851.38;5048799;28;20162;-63
2023/12/08 00:42:30;;;;;;;21.25;16.35;;;;;;;1.09;100.00;160856.69;5052589;28;20039;-58
2023/12/08 00:44:56;;;;;;;17.77;15.52;;;;;;;1.12;100.00;160863.44;5068961;28;20037;-59
2023/12/08 00:47:21;;;;;;;20.70;16.35;;;;;;;1.08;100.00;160854.06;5050334;28;20083;-58
2023/12/08 00:49:47;;;;;;;16.75;14.32;;;;;;;1.07;100.00;160851.38;5048527;28;20037;-58
2023/12/08 00:52:12;;;;;;;22.98;15.38;;;;;;;1.06;100.00;160848.69;5050352;28;20056;-58
2023/12/08 00:54:38;;;;;;;17.65;14.68;;;;;;;1.02;100.00;160839.28;5048723;28;20041;-59
2023/12/08 00:57:03;;;;;;;22.15;14.85;;;;;;;1.07;100.00;160851.38;5055530;28;20032;-59
2023/12/08 00:59:29;;;;;;;18.90;14.35;;;;;;;1.04;100.00;160843.28;5068383;28;20116;-59
2023/12/08 01:01:54;;;;;;;17.42;15.40;;;;;;;1.03;100.00;160841.97;5070133;28;20035;-59
2023/12/08 01:04:20;;;;;;;15.65;13.55;;;;;;;1.05;100.00;160845.97;5050282;28;20040;-58
2023/12/08 01:06:45;;;;;;;15.40;13.30;;;;;;;1.08;100.00;160854.06;5050090;28;20029;-59
2023/12/08 01:09:10;;;;;;;20.58;15.07;;;;;;;1.09;100.00;160856.69;5048545;28;20412;-59
2023/12/08 01:11:36;;;;;;;15.23;13.50;;;;;;;0.96;100.00;160823.19;5049941;28;20036;-59
2023/12/08 01:14:02;;;;;;;18.20;14.70;;;;;;;1.10;100.00;160859.38;5052224;28;20021;-58
2023/12/08 01:16:28;;;;;;;16.75;13.70;;;;;;;1.13;100.00;160866.06;5053342;28;20047;-59
2023/12/08 01:18:54;;;;;;;22.30;12.93;;;;;;;1.14;100.00;160870.13;5053079;28;20021;-59
2023/12/08 01:21:19;;;;;;;17.10;15.15;;;;;;;1.15;100.00;160871.47;5053062;28;20064;-59
2023/12/08 01:23:44;;;;;;;21.77;16.63;;;;;;;1.15;100.00;160871.47;5053619;28;20021;-60
2023/12/08 01:26:10;;;;;;;22.30;15.63;;;;;;;1.20;100.00;160886.22;5051782;28;20045;-57
2023/12/08 01:28:35;;;;;;;14.00;11.65;;;;;;;1.22;100.00;160891.59;5053121;28;20067;-59
2023/12/08 01:31:00;;;;;;;15.07;13.32;;;;;;;1.24;100.00;160896.94;5052597;28;20040;-59
2023/12/08 01:33:26;;;;;;;17.10;12.65;;;;;;;1.24;100.00;160895.63;5072688;28;20021;-59
2023/12/08 01:35:51;;;;;;;14.65;13.10;;;;;;;1.27;100.00;160905.00;5071772;28;20040;-59
2023/12/08 01:38:17;;;;;;;14.13;12.63;;;;;;;1.27;100.00;160905.00;5072968;28;20383;-59
2023/12/08 01:40:42;;;;;;;17.30;13.27;;;;;;;1.31;100.00;160913.03;5071127;28;20045;-59
2023/12/08 01:43:11;;;;;;;15.85;12.38;;;;;;;1.33;100.00;160918.41;5054660;28;20040;-60
2023/12/08 01:45:37;;;;;;;19.63;12.90;;;;;;;1.34;100.00;160921.09;5051855;28;20114;-59
2023/12/08 01:48:03;;;;;;;18.15;13.57;;;;;;;1.38;100.00;160931.78;5052705;28;20104;-60
2023/12/08 01:50:29;;;;;;;18.73;13.73;;;;;;;1.43;100.00;160946.56;5051512;28;20124;-60
2023/12/08 01:52:54;;;;;;;14.50;13.02;;;;;;;1.38;100.00;160931.78;5071613;28;20078;-60
2023/12/08 01:55:20;;;;;;;14.63;11.80;;;;;;;1.41;100.00;160941.25;5070624;28;20044;-60
2023/12/08 01:57:46;;;;;;;15.68;13.25;;;;;;;1.43;100.00;160945.25;5073230;28;20086;-59
2023/12/08 02:00:13;;;;;;;15.15;13.05;;;;;;;1.48;100.00;160958.66;5069747;28;20495;-59
2023/12/08 02:02:38;;;;;;;18.27;14.02;;;;;;;1.46;100.00;160953.25;5055442;28;20031;-59
2023/12/08 02:05:04;;;;;;;14.68;12.82;;;;;;;1.42;100.00;160942.56;5051453;28;20037;-59
2023/12/08 02:07:31;;;;;;;14.25;11.75;;;;;;;1.50;100.00;160962.66;5052879;28;20033;-60
2023/12/08 02:09:57;;;;;;;12.95;10.23;;;;;;;1.51;100.00;160965.34;5051176;28;20503;-60
2023/12/08 02:12:22;;;;;;;15.90;12.60;;;;;;;1.49;100.00;160960.00;5066529;28;20040;-60
2023/12/08 02:14:50;;;;;;;11.40;10.13;;;;;;;1.53;100.00;160970.72;5056695;28;20524;-60
2023/12/08 02:17:30;;;;;;;15.07;11.67;;;;;;;1.53;100.00;160972.03;5052275;28;20029;-60
2023/12/08 02:19:56;;;;;;;13.15;11.73;;;;;;;1.56;100.00;160980.13;5051102;28;20477;-60
2023/12/08 02:22:24;;;;;;;16.92;13.18;;;;;;;1.41;100.00;160941.25;5065737;28;20032;-60
2023/12/08 02:24:50;;;;;;;15.05;10.68;;;;;;;1.56;100.00;160980.13;5069936;28;20518;-60
2023/12/08 02:27:16;;;;;;;12.77;11.45;;;;;;;1.56;100.00;160978.81;5072041;28;20025;-60
2023/12/08 02:29:41;;;;;;;13.77;12.10;;;;;;;1.54;100.00;160974.75;5071002;28;20055;-60
2023/12/08 02:32:22;;;;;;;13.70;12.25;;;;;;;1.54;100.00;160974.75;5060336;28;20033;-60
2023/12/08 02:34:50;;;;;;;17.15;12.65;;;;;;;1.51;100.00;160966.72;5050588;28;20080;-60
2023/12/08 02:37:18;;;;;;;14.88;10.80;;;;;;;1.47;100.00;160955.97;5051710;28;20100;-60
2023/12/08 02:39:44;;;;;;;15.10;12.37;;;;;;;1.45;100.00;160950.63;5050487;28;20047;-60
2023/12/08 02:42:11;;;;;;;13.30;10.40;;;;;;;1.45;100.00;160950.63;5052041;28;20451;-58
2023/12/08 02:44:36;;;;;;;15.20;10.75;;;;;;;1.42;100.00;160943.88;5050290;28;20041;-59
2023/12/08 02:47:01;;;;;;;14.90;11.07;;;;;;;1.37;100.00;160930.47;5069050;28;20032;-59
2023/12/08 02:49:27;;;;;;;20.73;12.52;;;;;;;1.38;100.00;160931.78;5070295;28;20056;-59
2023/12/08 02:51:52;;;;;;;13.27;11.40;;;;;;;1.39;100.00;160934.50;5061062;28;20566;-59
2023/12/08 02:54:17;;;;;;;17.33;12.68;;;;;;;1.39;100.00;160934.50;5049771;28;20048;-59
2023/12/08 02:56:43;;;;;;;17.85;11.45;;;;;;;1.40;100.00;160937.19;5051890;28;20021;-59
2023/12/08 02:59:08;;;;;;;14.10;12.32;;;;;;;1.38;100.00;160933.16;5050255;28;20024;-59
2023/12/08 03:01:33;;;;;;;12.90;11.05;;;;;;;1.39;100.00;160934.50;5059831;28;20495;-59
2023/12/08 03:03:59;;;;;;;14.00;11.63;;;;;;;1.39;100.00;160935.84;5070192;28;20043;-59
2023/12/08 03:06:24;;;;;;;12.93;11.02;;;;;;;1.37;100.00;160930.47;5071259;28;20070;-59
2023/12/08 03:08:49;;;;;;;15.80;13.48;;;;;;;1.38;100.00;160931.78;5060811;28;20032;-59
2023/12/08 03:11:15;;;;;;;14.23;11.60;;;;;;;1.39;100.00;160934.50;5056202;28;20106;-60
2023/12/08 03:13:40;;;;;;;15.02;11.90;;;;;;;1.39;100.00;160935.84;5071318;28;20035;-59
2023/12/08 03:16:06;;;;;;;17.90;12.15;;;;;;;1.43;100.00;160946.56;5069578;28;20487;-60
2023/12/08 03:18:32;;;;;;;14.27;12.05;;;;;;;1.37;100.00;160929.16;5071387;28;20490;-68
2023/12/08 03:20:57;;;;;;;12.95;11.63;;;;;;;1.42;100.00;160942.56;5065812;28;20041;-59
2023/12/08 03:23:22;;;;;;;19.33;13.52;;;;;;;1.46;100.00;160953.25;5050705;28;20017;-59
2023/12/08 03:25:48;;;;;;;16.83;13.15;;;;;;;1.39;100.00;160935.84;5049674;28;20049;-60
2023/12/08 03:28:13;;;;;;;15.07;13.18;;;;;;;1.46;100.00;160953.25;5051038;28;20025;-60
2023/12/08 03:30:38;;;;;;;13.40;11.65;;;;;;;1.47;100.00;160955.97;5050100;28;20041;-60
2023/12/08 03:33:04;;;;;;;15.27;12.43;;;;;;;1.48;100.00;160957.31;5070364;28;20502;-60
2023/12/08 03:35:29;;;;;;;16.38;11.23;;;;;;;1.42;100.00;160942.56;5052393;28;20055;-60
2023/12/08 03:37:55;;;;;;;15.57;13.05;;;;;;;1.38;100.00;160933.16;5050697;28;20454;-59
2023/12/08 03:40:20;;;;;;;16.33;13.60;;;;;;;1.36;100.00;160926.47;5058312;28;20115;-59
2023/12/08 03:42:45;;;;;;;18.00;13.35;;;;;;;1.40;100.00;160938.53;5051970;28;20602;-60
2023/12/08 03:45:11;;;;;;;19.33;14.18;;;;;;;1.37;100.00;160929.16;5049687;28;20045;-60
2023/12/08 03:47:36;;;;;;;21.10;13.60;;;;;;;1.38;100.00;160931.78;5050300;28;20029;-60
2023/12/08 03:50:02;;;;;;;16.38;12.32;;;;;;;1.34;100.00;160921.09;5049600;28;20049;-60
2023/12/08 03:52:27;;;;;;;16.80;13.60;;;;;;;1.31;100.00;160913.03;5051179;28;20029;-59
2023/12/08 03:54:52;;;;;;;17.95;13.00;;;;;;;1.13;100.00;160866.06;5049077;28;20412;-59
2023/12/08 03:57:18;;;;;;;16.83;12.13;;;;;;;1.22;100.00;160891.59;5050593;28;20021;-59
2023/12/08 03:59:43;;;;;;;20.02;13.73;;;;;;;1.15;100.00;160871.47;5049209;28;20029;-60
2023/12/08 04:02:09;;;;;;;19.02;14.98;;;;;;;1.13;100.00;160867.44;5062121;28;20032;-60
2023/12/08 04:04:34;;;;;;;23.35;14.18;;;;;;;1.11;100.00;160862.06;5059392;28;20099;-60
2023/12/08 04:06:59;;;;;;;18.35;13.73;;;;;;;1.03;100.00;160841.97;5050438;28;20033;-60
2023/12/08 04:09:25;;;;;;;18.48;16.48;;;;;;;0.98;100.00;160827.22;5048697;28;20039;-59
2023/12/08 04:11:50;;;;;;;17.00;13.60;;;;;;;0.95;100.00;160821.84;5059185;28;20638;-60
2023/12/08 04:14:16;;;;;;;23.42;16.33;;;;;;;0.89;100.00;160804.44;5068816;28;20055;-59
2023/12/08 04:16:41;;;;;;;23.13;16.55;;;;;;;0.86;100.00;160797.69;5070249;28;20040;-59
2023/12/08 04:19:06;;;;;;;21.17;14.65;;;;;;;0.87;100.00;160799.06;5068976;28;20029;-59
2023/12/08 04:21:32;;;;;;;23.98;18.15;;;;;;;0.85;100.00;160795.03;5064376;28;20372;-59
2023/12/08 04:23:57;;;;;;;19.33;15.75;;;;;;;0.78;100.00;160776.28;5048687;28;20024;-59
2023/12/08 04:26:25;;;;;;;19.15;15.40;;;;;;;0.75;100.00;160768.22;5050044;28;20051;-59
2023/12/08 04:28:53;;;;;;;27.90;18.48;;;;;;;0.75;100.00;160768.22;5050679;28;20174;-60
2023/12/08 04:31:18;;;;;;;21.60;18.10;;;;;;;0.73;100.00;160762.84;5051864;28;20639;-63
2023/12/08 04:33:44;;;;;;;23.17;18.30;;;;;;;0.69;100.00;160752.13;5067725;28;20033;-59
2023/12/08 04:36:09;;;;;;;25.17;18.08;;;;;;;0.71;100.00;160758.81;5048611;28;20053;-59
2023/12/08 04:38:35;;;;;;;23.75;18.83;;;;;;;0.73;100.00;160762.84;5050004;28;20059;-59
2023/12/08 04:41:00;;;;;;;25.90;19.42;;;;;;;0.74;100.00;160765.53;5049045;28;20037;-59
2023/12/08 04:43:25;;;;;;;29.27;18.63;;;;;;;0.74;100.00;160765.53;5050300;28;20017;-59
2023/12/08 04:45:51;;;;;;;23.08;18.52;;;;;;;0.68;100.00;160749.44;5048367;28;20376;-59
2023/12/08 04:48:16;;;;;;;25.00;21.95;;;;;;;0.72;100.00;160760.13;5053188;28;20028;-59
2023/12/08 04:50:42;;;;;;;30.27;21.58;;;;;;;0.68;100.00;160749.44;5052988;28;20439;-59
2023/12/08 04:53:07;;;;;;;30.88;19.58;;;;;;;0.67;100.00;160746.75;5071836;28;20471;-59
2023/12/08 04:55:33;;;;;;;23.33;18.02;;;;;;;0.61;100.00;160733.34;5072411;28;20043;-59
2023/12/08 04:57:58;;;;;;;27.67;20.35;;;;;;;0.62;100.00;160734.69;5071849;28;20031;-59
2023/12/08 05:00:23;;;;;;;28.73;21.90;;;;;;;0.65;100.00;160741.38;5052088;28;20037;-59
2023/12/08 05:02:49;;;;;;;29.35;21.92;;;;;;;0.64;100.00;160740.06;5069082;28;20028;-60
2023/12/08 05:05:14;;;;;;;28.35;20.98;;;;;;;0.59;100.00;160726.66;5060916;28;20049;-59
2023/12/08 05:07:40;;;;;;;29.63;20.60;;;;;;;0.63;100.00;160738.69;5056913;28;20116;-64
2023/12/08 05:10:05;;;;;;;29.63;22.23;;;;;;;0.64;100.00;160740.06;5072360;28;20411;-59
2023/12/08 05:12:31;;;;;;;25.23;21.38;;;;;;;0.63;100.00;160738.69;5060891;28;20085;-58
2023/12/08 05:14:56;;;;;;;29.65;23.08;;;;;;;0.60;100.00;160730.66;5051301;28;20049;-58
2023/12/08 05:17:21;;;;;;;23.85;18.40;;;;;;;0.61;100.00;160733.34;5053145;28;20482;-59
2023/12/08 05:19:47;;;;;;;36.20;21.95;;;;;;;0.63;100.00;160738.69;5051820;28;20052;-58
2023/12/08 05:22:12;;;;;;;30.67;21.17;;;;;;;0.63;100.00;160738.69;5037828;28;20044;-59
2023/12/08 05:24:38;;;;;;;28.75;21.85;;;;;;;0.63;100.00;160738.69;5047910;28;20051;-58
2023/12/08 05:27:03;;;;;;;27.05;20.63;;;;;;;0.63;100.00;160738.69;5053219;28;20033;-58
2023/12/08 05:29:28;;;;;;;30.65;21.52;;;;;;;0.63;100.00;160738.69;5058835;28;20068;-58
2023/12/08 05:31:54;;;;;;;28.17;20.58;;;;;;;0.66;100.00;160744.06;5053397;28;20051;-59
2023/12/08 05:34:19;;;;;;;35.17;21.70;;;;;;;0.63;100.00;160738.69;5051023;28;20052;-58
2023/12/08 05:36:44;;;;;;;37.50;21.27;;;;;;;0.66;100.00;160744.06;5052433;28;20040;-58
2023/12/08 05:39:10;;;;;;;27.83;20.88;;;;;;;0.62;100.00;160736.06;5063838;28;20027;-58
2023/12/08 05:41:36;;;;;;;32.92;22.83;;;;;;;0.68;100.00;160749.44;5073319;28;20424;-58
2023/12/08 05:44:02;;;;;;;32.03;22.90;;;;;;;0.67;100.00;160746.75;5069790;28;20025;-58
2023/12/08 05:46:27;;;;;;;30.88;21.38;;;;;;;0.68;100.00;160749.44;5071572;28;20025;-58
2023/12/08 05:48:53;;;;;;;30.00;22.40;;;;;;;0.68;100.00;160749.44;5061667;28;20458;-58
2023/12/08 05:51:18;;;;;;;30.33;24.10;;;;;;;0.70;100.00;160756.13;5050872;28;20067;-58
2023/12/08 05:53:44;;;;;;;31.60;22.20;;;;;;;0.69;100.00;160752.13;5066155;28;20095;-58
2023/12/08 05:56:11;;;;;;;29.85;23.10;;;;;;;0.67;100.00;160748.06;5070949;28;20090;-58
2023/12/08 05:58:36;;;;;;;36.65;23.23;;;;;;;0.69;100.00;160753.44;5063012;28;20017;-58
2023/12/08 06:01:02;;;;;;;26.42;21.38;;;;;;;0.69;100.00;160752.13;5048311;28;20132;-58
2023/12/08 06:03:28;;;;;;;35.08;23.23;;;;;;;0.68;100.00;160749.44;5032499;28;20043;-58
2023/12/08 06:05:53;;;;;;;33.10;22.02;;;;;;;0.65;100.00;160742.75;5030556;28;20045;-58
2023/12/08 06:08:19;;;;;;;32.00;22.92;;;;;;;0.74;100.00;160765.53;5030852;28;20021;-58
2023/12/08 06:10:44;;;;;;;31.20;22.13;;;;;;;0.71;100.00;160758.81;5045984;28;20519;-58
2023/12/08 06:13:09;;;;;;;33.38;21.60;;;;;;;0.70;100.00;160756.13;5051481;28;20033;-58
2023/12/08 06:15:35;;;;;;;32.42;23.17;;;;;;;0.74;100.00;160765.53;5049206;28;20543;-58
2023/12/08 06:18:00;;;;;;;30.50;22.63;;;;;;;0.75;100.00;160769.53;5052274;28;20025;-58
2023/12/08 06:20:25;;;;;;;30.27;21.92;;;;;;;0.75;100.00;160768.22;5050213;28;20072;-58
2023/12/08 06:22:51;;;;;;;30.45;22.83;;;;;;;0.73;100.00;160764.19;5049375;28;20037;-58
2023/12/08 06:25:16;;;;;;;30.27;23.65;;;;;;;0.74;100.00;160765.53;5035314;28;20044;-58
2023/12/08 06:27:43;;;;;;;35.42;22.13;;;;;;;0.69;100.00;160753.44;5051813;28;20033;-58
2023/12/08 06:30:08;;;;;;;37.45;25.67;;;;;;;0.73;100.00;160762.84;5048581;28;20045;-58
2023/12/08 06:32:34;;;;;;;35.05;24.25;;;;;;;0.71;100.00;160757.50;5055618;28;20099;-58
2023/12/08 06:34:59;;;;;;;45.55;25.45;;;;;;;0.73;100.00;160762.84;5064951;28;20049;-58
2023/12/08 06:37:25;;;;;;;37.88;24.90;;;;;;;0.71;100.00;160757.50;5049907;28;20436;-58
2023/12/08 06:39:50;;;;;;;41.25;27.50;;;;;;;0.72;100.00;160761.50;5050084;28;20048;-58
2023/12/08 06:42:15;;;;;;;42.03;25.35;;;;;;;0.73;100.00;160764.19;5064381;28;20520;-58
2023/12/08 06:44:41;;;;;;;41.50;28.58;;;;;;;0.76;100.00;160770.91;5068188;28;20053;-58
2023/12/08 06:47:08;;;;;;;38.10;23.58;;;;;;;0.76;100.00;160770.91;5069250;28;20025;-58
2023/12/08 06:49:33;;;;;;;40.22;26.90;;;;;;;0.76;100.00;160770.91;5055012;28;20170;-58
2023/12/08 06:51:58;;;;;;;43.83;29.00;;;;;;;0.79;100.00;160778.91;5050270;28;20475;-58
2023/12/08 06:54:24;;;;;;;34.58;24.35;;;;;;;0.83;100.00;160788.28;5036402;28;20155;-58
2023/12/08 06:56:49;;;;;;;34.05;25.02;;;;;;;0.79;100.00;160780.28;5049131;28;20502;-58
2023/12/08 06:59:15;;;;;;;43.88;25.27;;;;;;;0.82;100.00;160786.97;5054842;28;20021;-59
2023/12/08 07:01:41;;;;;;;39.13;27.23;;;;;;;0.78;100.00;160776.28;5051091;28;20021;-59
2023/12/08 07:04:07;;;;;;;38.83;25.45;;;;;;;0.83;100.00;160788.28;5049562;28;20087;-58
2023/12/08 07:06:33;;;;;;;42.55;29.13;;;;;;;0.84;100.00;160790.97;5060174;28;20036;-58
2023/12/08 07:08:58;;;;;;;41.63;26.65;;;;;;;0.87;100.00;160800.38;5058762;28;20025;-58
2023/12/08 07:11:24;;;;;;;37.35;28.02;;;;;;;0.87;100.00;160800.38;5043058;28;20028;-59
2023/12/08 07:13:49;;;;;;;46.38;28.20;;;;;;;0.89;100.00;160804.44;5039579;28;20025;-58
2023/12/08 07:16:14;;;;;;;45.47;25.70;;;;;;;0.90;100.00;160807.06;5046711;28;20045;-56
2023/12/08 07:18:40;;;;;;;38.95;26.90;;;;;;;0.93;100.00;160816.47;5061857;28;20074;-57
2023/12/08 07:21:06;;;;;;;40.35;25.10;;;;;;;0.92;100.00;160812.44;5047937;28;20120;-58
2023/12/08 07:23:31;;;;;;;40.28;25.13;;;;;;;0.90;100.00;160807.06;5050428;28;20037;-56
2023/12/08 07:25:57;;;;;;;40.22;26.75;;;;;;;0.98;100.00;160827.22;5048995;28;20496;-57
2023/12/08 07:28:22;;;;;;;40.22;29.15;;;;;;;0.96;100.00;160823.19;5048885;28;20044;-56
2023/12/08 07:30:47;;;;;;;41.33;28.58;;;;;;;0.98;100.00;160828.53;5051737;28;20519;-56
2023/12/08 07:33:13;;;;;;;42.78;27.55;;;;;;;0.99;100.00;160829.91;5065593;28;20025;-56
2023/12/08 07:35:38;;;;;;;44.13;29.02;;;;;;;1.03;100.00;160841.97;5048898;28;20071;-57
2023/12/08 07:38:04;;;;;;;38.92;25.50;;;;;;;1.02;100.00;160837.91;5049323;28;20428;-56
2023/12/08 07:40:29;;;;;;;39.05;26.73;;;;;;;1.00;100.00;160832.59;5048242;28;20049;-56
2023/12/08 07:42:55;;;;;;;42.60;27.20;;;;;;;1.07;100.00;160851.38;5069624;28;20032;-56
2023/12/08 07:45:20;;;;;;;36.78;25.13;;;;;;;1.09;100.00;160856.69;5058125;28;20176;-56
2023/12/08 07:47:47;;;;;;;39.78;25.80;;;;;;;1.10;100.00;160859.38;5050279;28;20029;-56
2023/12/08 07:50:13;;;;;;;43.72;28.73;;;;;;;1.09;100.00;160856.69;5062348;28;20632;-56
2023/12/08 07:52:42;;;;;;;47.53;28.40;;;;;;;1.15;100.00;160872.81;5069983;28;20036;-56
2023/12/08 07:55:10;;;;;;;41.80;29.13;;;;;;;1.17;100.00;160878.16;5069061;28;20040;-56
2023/12/08 07:57:36;;;;;;;50.35;29.48;;;;;;;1.19;100.00;160883.53;5069892;28;20071;-56
2023/12/08 08:00:05;;;;;;;40.53;28.25;;;;;;;1.25;100.00;160899.63;5068909;28;20044;-56
2023/12/08 08:02:31;;;;;;;42.70;30.33;;;;;;;1.27;100.00;160905.00;5070413;28;20407;-56
2023/12/08 08:04:57;;;;;;;42.47;29.27;;;;;;;1.31;100.00;160913.03;5054387;28;20051;-56
2023/12/08 08:07:22;;;;;;;48.17;29.08;;;;;;;1.27;100.00;160905.00;5050245;28;20391;-56
2023/12/08 08:09:48;;;;;;;45.33;29.48;;;;;;;1.22;100.00;160890.22;5056629;28;20546;-56
2023/12/08 08:12:13;;;;;;;51.45;31.30;;;;;;;1.30;100.00;160910.38;5049367;28;20017;-56
2023/12/08 08:14:38;;;;;;;42.13;28.20;;;;;;;1.32;100.00;160917.09;5063868;28;20055;-56
2023/12/08 08:17:04;;;;;;;47.05;31.25;;;;;;;1.35;100.00;160923.78;5070194;28;20033;-56
2023/12/08 08:19:29;;;;;;;44.78;29.95;;;;;;;1.39;100.00;160934.50;5068352;28;20037;-56
2023/12/08 08:21:54;;;;;;;49.58;30.45;;;;;;;1.40;100.00;160937.19;5050162;28;20021;-57
2023/12/08 08:24:20;;;;;;;53.75;33.20;;;;;;;1.39;100.00;160934.50;5042522;28;20139;-56
2023/12/08 08:26:46;;;;;;;62.58;32.40;;;;;;;1.41;100.00;160939.88;5034983;28;20033;-56
2023/12/08 08:29:11;;;;;;;53.80;34.92;;;;;;;1.51;100.00;160966.72;5033918;28;20119;-56
2023/12/08 08:31:37;;;;;;;56.80;33.17;;;;;;;1.55;100.00;160977.44;5051147;28;20045;-56
2023/12/08 08:34:05;;;;;;;52.10;32.08;;;;;;;1.55;100.00;160977.44;5051110;28;20024;-56
2023/12/08 08:36:30;;;;;;;58.72;35.13;;;;;;;1.56;100.00;160980.13;5052010;28;20040;-56
2023/12/08 08:38:56;;;;;;;44.67;33.50;;;;;;;1.63;100.00;160997.56;5053757;28;20432;-56
2023/12/08 08:41:23;;;;;;;60.70;33.83;;;;;;;1.66;100.00;161004.28;5050873;28;20115;-56
2023/12/08 08:43:50;;;;;;;50.92;34.17;;;;;;;1.74;100.00;161025.75;5053909;28;20040;-56
2023/12/08 08:46:15;;;;;;;49.85;32.47;;;;;;;1.68;100.00;161009.59;5052171;28;20037;-56
2023/12/08 08:48:41;;;;;;;49.97;35.35;;;;;;;1.74;100.00;161025.75;5053774;28;20041;-56
2023/12/08 08:51:06;;;;;;;55.53;36.35;;;;;;;1.84;100.00;161051.25;5051952;28;20036;-56
2023/12/08 08:53:32;;;;;;;55.70;37.20;;;;;;;1.85;100.00;161055.25;5053629;28;20025;-56
2023/12/08 08:55:58;;;;;;;62.28;37.65;;;;;;;1.88;100.00;161061.94;5053172;28;20044;-56
2023/12/08 08:58:24;;;;;;;59.67;36.28;;;;;;;1.91;100.00;161070.03;5063868;28;20032;-56
2023/12/08 09:00:49;;;;;;;55.10;35.22;;;;;;;1.97;100.00;161084.81;5067191;28;20119;-56
2023/12/08 09:03:15;;;;;;;53.97;34.45;;;;;;;2.00;100.00;161092.81;5073267;28;20040;-56
2023/12/08 09:05:41;;;;;;;56.00;32.13;;;;;;;1.90;100.00;161068.66;5071619;28;20190;-56
2023/12/08 09:08:08;;;;;;;75.90;37.08;;;;;;;2.04;100.00;161103.59;5071691;28;20420;-56
2023/12/08 09:10:34;;;;;;;54.80;34.83;;;;;;;2.04;100.00;161103.59;5058801;28;20037;-56
2023/12/08 09:12:59;;;;;;;58.75;37.35;;;;;;;2.04;100.00;161104.91;5072815;28;20526;-57
2023/12/08 09:15:25;;;;;;;56.08;38.40;;;;;;;2.14;100.00;161129.06;5066286;28;20090;-56
2023/12/08 09:17:51;;;;;;;51.20;35.47;;;;;;;2.13;100.00;161127.72;5053000;28;20566;-56
2023/12/08 09:20:16;;;;;;;67.97;38.42;;;;;;;2.16;100.00;161135.78;5051183;28;20041;-56
2023/12/08 09:22:42;;;;;;;55.15;36.83;;;;;;;2.28;100.00;161165.28;5053244;28;20054;-56
2023/12/08 09:25:07;;;;;;;58.33;36.25;;;;;;;2.26;100.00;161159.94;5051921;28;20037;-56
2023/12/08 09:27:33;;;;;;;52.70;37.28;;;;;;;2.31;100.00;161174.69;5052242;28;20365;-56
2023/12/08 09:29:58;;;;;;;62.83;38.58;;;;;;;2.31;100.00;161173.34;5051160;28;20106;-57
2023/12/08 09:32:23;;;;;;;54.83;37.22;;;;;;;2.30;100.00;161170.66;5052547;28;20095;-57
2023/12/08 09:34:49;;;;;;;69.18;37.10;;;;;;;2.40;100.00;161196.16;5051081;28;20131;-57
2023/12/08 09:37:14;;;;;;;58.08;35.83;;;;;;;2.44;100.00;161208.25;5051688;28;20500;-56
2023/12/08 09:39:39;;;;;;;60.67;41.95;;;;;;;2.39;100.00;161194.84;5050621;28;20041;-57
2023/12/08 09:42:10;;;;;;;52.42;37.72;;;;;;;2.45;100.00;161209.63;5050983;28;20073;-56
2023/12/08 09:44:36;;;;;;;66.75;37.40;;;;;;;2.47;100.00;161214.97;5049311;28;20120;-56
2023/12/08 09:47:03;;;;;;;59.92;39.17;;;;;;;2.48;100.00;161217.66;5050877;28;20044;-57
2023/12/08 09:49:29;;;;;;;61.58;38.35;;;;;;;2.45;100.00;161210.94;5048734;28;20610;-57
2023/12/08 09:51:56;;;;;;;58.42;35.38;;;;;;;2.46;100.00;161213.63;5050768;28;20687;-56
2023/12/08 09:54:23;;;;;;;69.93;40.60;;;;;;;2.45;100.00;161210.94;5049203;28;20094;-56
2023/12/08 09:56:54;;;;;;;70.90;41.17;;;;;;;2.54;100.00;161233.75;5052013;28;20036;-56
2023/12/08 09:59:26;;;;;;;67.32;38.05;;;;;;;2.57;100.00;161241.81;5050552;28;20079;-57
2023/12/08 10:01:52;;;;;;;64.63;36.33;;;;;;;2.59;100.00;161245.84;5050974;28;20051;-56
2023/12/08 10:04:17;;;;;;;72.13;44.75;;;;;;;2.61;100.00;161252.53;5049493;28;20013;-57
2023/12/08 10:06:43;;;;;;;74.22;41.92;;;;;;;2.68;100.00;161270.03;5052022;28;20025;-57
2023/12/08 10:09:11;;;;;;;75.03;41.08;;;;;;;2.75;100.00;161287.50;5050980;28;20105;-57
2023/12/08 10:11:38;;;;;;;73.78;41.95;;;;;;;2.81;100.00;161304.91;5051944;28;20021;-57
2023/12/08 10:14:05;;;;;;;78.65;44.13;;;;;;;2.83;100.00;161310.31;5050078;28;20112;-57
2023/12/08 10:16:30;;;;;;;63.97;40.78;;;;;;;2.89;100.00;161323.72;5050979;28;20025;-57
2023/12/08 10:19:06;;;;;;;71.10;41.97;;;;;;;2.94;100.00;161337.19;5051846;28;20040;-57
2023/12/08 10:21:32;;;;;;;82.22;40.67;;;;;;;2.96;100.00;161342.50;5050114;28;20049;-57
2023/12/08 10:24:02;;;;;;;99.70;43.30;;;;;;;2.96;100.00;161343.88;5051953;28;20013;-57
2023/12/08 10:26:29;;;;;;;65.88;41.88;;;;;;;3.02;100.00;161358.63;5050489;28;20045;-57
2023/12/08 10:28:56;;;;;;;77.88;41.60;;;;;;;3.04;100.00;161362.69;5049902;28;20029;-56
2023/12/08 10:31:21;;;;;;;77.35;44.47;;;;;;;3.06;100.00;161369.41;5051222;28;20033;-57
2023/12/08 10:33:48;;;;;;;73.65;44.17;;;;;;;3.06;100.00;161369.41;5051344;28;20044;-57
2023/12/08 10:36:13;;;;;;;71.95;46.50;;;;;;;3.07;100.00;161372.09;5049951;28;20191;-56
2023/12/08 10:38:39;;;;;;;78.63;44.42;;;;;;;3.09;100.00;161377.44;5051659;28;20068;-57
2023/12/08 10:41:05;;;;;;;72.55;45.40;;;;;;;3.10;100.00;161378.78;5049838;28;20492;-57
2023/12/08 10:43:30;;;;;;;79.90;46.45;;;;;;;3.16;100.00;161396.22;5050860;28;20028;-57
2023/12/08 10:45:56;;;;;;;80.68;47.78;;;;;;;3.23;100.00;161412.38;5049738;28;20041;-57
2023/12/08 10:48:24;;;;;;;73.38;47.80;;;;;;;3.22;100.00;161409.69;5050799;28;20036;-57
2023/12/08 10:50:51;;;;;;;86.57;42.20;;;;;;;3.15;100.00;161392.22;5049983;28;20044;-57
2023/12/08 10:53:18;;;;;;;83.35;42.92;;;;;;;3.31;100.00;161433.88;5050506;28;20104;-57
2023/12/08 10:56:00;;;;;;;77.65;43.45;;;;;;;3.28;100.00;161427.13;5049730;28;20048;-57
2023/12/08 10:58:26;;;;;;;88.57;45.33;;;;;;;3.29;100.00;161428.50;5051108;28;20021;-57
2023/12/08 11:00:55;;;;;;;80.03;45.25;;;;;;;3.35;100.00;161443.28;5048200;28;20052;-57
2023/12/08 11:03:21;;;;;;;;;;;;;;;3.38;100.00;161451.31;5051507;28;20051;-57